createdAt,value
2019-04-01T00:01:50.512Z,4.85
2019-04-01T00:04:23.301Z,4.88
2019-04-01T00:06:56.078Z,4.84
2019-04-01T00:09:28.802Z,4.84
2019-04-01T00:12:03.172Z,4.86
2019-04-01T00:14:35.997Z,4.85
2019-04-01T00:17:09.225Z,4.83
2019-04-01T00:19:41.970Z,4.79
2019-04-01T00:22:14.714Z,4.80
2019-04-01T00:24:47.506Z,4.73
2019-04-01T00:27:20.360Z,4.56
2019-04-01T00:29:53.097Z,4.52
2019-04-01T00:32:25.921Z,4.42
2019-04-01T00:34:58.644Z,4.37
2019-04-01T00:37:31.856Z,4.28
2019-04-01T00:40:04.606Z,4.17
2019-04-01T00:42:50.505Z,4.10
2019-04-01T00:45:24.750Z,4.03
2019-04-01T00:47:57.569Z,3.89
2019-04-01T00:50:30.384Z,3.80
2019-04-01T00:53:03.206Z,3.74
2019-04-01T00:55:36.015Z,3.74
2019-04-01T00:58:08.779Z,3.72
2019-04-01T01:00:41.589Z,3.77
2019-04-01T01:03:14.416Z,3.76
2019-04-01T01:05:47.293Z,3.63
2019-04-01T01:08:20.440Z,3.54
2019-04-01T01:10:54.325Z,3.54
2019-04-01T01:13:27.290Z,3.46
2019-04-01T01:16:00.115Z,3.42
2019-04-01T01:18:33.002Z,3.36
2019-04-01T01:21:07.357Z,3.29
2019-04-01T01:23:41.182Z,3.23
2019-04-01T01:26:13.918Z,3.09
2019-04-01T01:28:46.800Z,3.00
2019-04-01T01:31:19.760Z,2.95
2019-04-01T01:33:52.739Z,2.92
2019-04-01T01:36:25.925Z,2.94
2019-04-01T01:38:58.730Z,2.91
2019-04-01T01:41:31.580Z,2.91
2019-04-01T01:44:04.920Z,2.91
2019-04-01T01:46:37.834Z,2.86
2019-04-01T01:49:10.708Z,2.84
2019-04-01T01:51:43.538Z,2.90
2019-04-01T01:54:17.438Z,2.90
2019-04-01T01:56:50.296Z,2.81
2019-04-01T01:59:23.221Z,2.83
2019-04-01T02:01:56.149Z,2.81
2019-04-01T02:04:29.084Z,2.78
2019-04-01T02:07:07.312Z,2.79
2019-04-01T02:09:44.748Z,2.72
2019-04-01T02:12:18.863Z,2.68
2019-04-01T02:14:51.716Z,2.69
2019-04-01T02:17:24.628Z,2.67
2019-04-01T02:19:57.557Z,2.72
2019-04-01T02:22:31.467Z,2.72
2019-04-01T02:25:04.245Z,2.69
2019-04-01T02:27:38.151Z,2.73
2019-04-01T02:30:10.995Z,2.69
2019-04-01T02:32:43.969Z,2.71
2019-04-01T02:35:16.879Z,2.80
2019-04-01T02:37:49.756Z,2.85
2019-04-01T02:40:22.621Z,2.83
2019-04-01T02:42:55.523Z,2.82
2019-04-01T02:45:28.297Z,2.71
2019-04-01T02:48:01.227Z,2.69
2019-04-01T02:50:35.250Z,2.72
2019-04-01T02:53:08.099Z,2.67
2019-04-01T02:55:41.137Z,2.75
2019-04-01T02:58:14.171Z,2.56
2019-04-01T03:00:47.118Z,2.60
2019-04-01T03:03:20.224Z,2.67
2019-04-01T03:05:54.418Z,2.52
2019-04-01T03:08:27.328Z,2.37
2019-04-01T03:11:00.316Z,2.32
2019-04-01T03:13:33.375Z,2.29
2019-04-01T03:16:06.471Z,2.23
2019-04-01T03:18:39.436Z,2.07
2019-04-01T03:21:12.394Z,2.10
2019-04-01T03:23:45.490Z,2.00
2019-04-01T03:26:18.533Z,2.05
2019-04-01T03:28:52.858Z,2.02
2019-04-01T03:31:25.998Z,2.02
2019-04-01T03:33:58.834Z,2.02
2019-04-01T03:36:32.523Z,2.05
2019-04-01T03:39:07.317Z,2.03
2019-04-01T03:41:40.334Z,2.06
2019-04-01T03:44:14.534Z,2.05
2019-04-01T03:46:47.505Z,2.04
2019-04-01T03:49:20.440Z,1.95
2019-04-01T03:51:54.842Z,1.96
2019-04-01T03:54:27.915Z,1.96
2019-04-01T03:57:01.325Z,1.96
2019-04-01T03:59:34.302Z,1.93
2019-04-01T04:02:07.852Z,1.95
2019-04-01T04:04:41.212Z,1.97
2019-04-01T04:07:16.768Z,1.96
2019-04-01T04:09:53.800Z,1.88
2019-04-01T04:12:27.434Z,1.88
2019-04-01T04:15:03.725Z,1.89
2019-04-01T04:17:36.894Z,1.83
2019-04-01T04:20:13.572Z,1.81
2019-04-01T04:22:50.113Z,1.81
2019-04-01T04:25:23.222Z,1.71
2019-04-01T04:27:56.412Z,1.66
2019-04-01T04:30:30.558Z,1.63
2019-04-01T04:33:03.662Z,1.62
2019-04-01T04:35:36.903Z,1.66
2019-04-01T04:38:10.467Z,1.61
2019-04-01T04:40:43.606Z,1.63
2019-04-01T04:43:16.779Z,1.79
2019-04-01T04:45:49.998Z,1.68
2019-04-01T04:48:23.233Z,1.65
2019-04-01T04:50:56.467Z,1.61
2019-04-01T04:53:29.833Z,1.52
2019-04-01T04:56:03.095Z,1.54
2019-04-01T04:58:36.467Z,1.73
2019-04-01T05:01:09.708Z,1.84
2019-04-01T05:03:42.932Z,1.97
2019-04-01T05:06:16.065Z,2.04
2019-04-01T05:08:50.715Z,2.02
2019-04-01T05:11:24.286Z,1.94
2019-04-01T05:13:57.779Z,2.02
2019-04-01T05:16:30.998Z,2.12
2019-04-01T05:19:04.166Z,2.24
2019-04-01T05:21:37.823Z,2.42
2019-04-01T05:24:12.089Z,2.49
2019-04-01T05:26:46.163Z,2.69
2019-04-01T05:29:19.383Z,2.86
2019-04-01T05:31:52.632Z,3.05
2019-04-01T05:34:25.979Z,3.24
2019-04-01T05:36:59.110Z,3.50
2019-04-01T05:39:33.229Z,3.80
2019-04-01T05:42:06.397Z,4.50
2019-04-01T05:44:39.530Z,4.79
2019-04-01T05:47:12.700Z,4.99
2019-04-01T05:49:45.847Z,5.15
2019-04-01T05:52:18.956Z,5.41
2019-04-01T05:54:52.057Z,5.41
2019-04-01T05:57:25.126Z,5.48
2019-04-01T05:59:58.122Z,5.56
2019-04-01T06:02:31.121Z,5.76
2019-04-01T06:05:04.097Z,5.79
2019-04-01T06:07:37.627Z,5.84
2019-04-01T06:10:10.568Z,6.06
2019-04-01T06:12:43.840Z,6.13
2019-04-01T06:15:16.770Z,6.32
2019-04-01T06:17:49.738Z,6.45
2019-04-01T06:20:22.671Z,6.45
2019-04-01T06:22:55.718Z,6.46
2019-04-01T06:25:29.306Z,6.86
2019-04-01T06:28:02.205Z,6.89
2019-04-01T06:30:35.208Z,7.02
2019-04-01T06:33:08.111Z,7.12
2019-04-01T06:35:41.179Z,7.33
2019-04-01T06:38:14.154Z,7.35
2019-04-01T06:40:47.233Z,7.42
2019-04-01T06:43:20.214Z,7.70
2019-04-01T06:45:53.227Z,7.82
2019-04-01T06:48:26.485Z,7.98
2019-04-01T06:50:59.395Z,7.91
2019-04-01T06:53:32.376Z,7.87
2019-04-01T06:56:05.366Z,7.94
2019-04-01T06:58:38.272Z,8.10
2019-04-01T07:01:11.265Z,8.02
2019-04-01T07:03:44.135Z,8.47
2019-04-01T07:06:17.078Z,8.52
2019-04-01T07:08:49.962Z,8.35
2019-04-01T07:11:23.101Z,8.62
2019-04-01T07:13:56.043Z,8.50
2019-04-01T07:16:29.082Z,8.37
2019-04-01T07:19:02.076Z,8.31
2019-04-01T07:21:35.035Z,8.55
2019-04-01T07:24:08.034Z,8.62
2019-04-01T07:26:41.331Z,8.73
2019-04-01T07:29:14.369Z,9.11
2019-04-01T07:31:47.391Z,9.72
2019-04-01T07:34:20.360Z,9.86
2019-04-01T07:36:53.341Z,9.76
2019-04-01T07:39:26.304Z,9.50
2019-04-01T07:41:59.282Z,9.38
2019-04-01T07:44:32.266Z,9.43
2019-04-01T07:47:05.225Z,9.65
2019-04-01T07:49:38.259Z,9.65
2019-04-01T07:52:12.719Z,9.49
2019-04-01T07:54:45.954Z,9.82
2019-04-01T07:57:19.226Z,9.86
2019-04-01T07:59:52.177Z,9.98
2019-04-01T08:02:25.311Z,9.95
2019-04-01T08:04:59.638Z,10.07
2019-04-01T08:07:32.685Z,10.12
2019-04-01T08:10:06.353Z,10.15
2019-04-01T08:12:39.202Z,10.17
2019-04-01T08:15:13.729Z,10.41
2019-04-01T08:17:46.645Z,10.53
2019-04-01T08:20:20.556Z,10.37
2019-04-01T08:22:54.375Z,10.67
2019-04-01T08:25:27.210Z,10.38
2019-04-01T08:28:00.143Z,10.27
2019-04-01T08:30:33.500Z,10.17
2019-04-01T08:33:07.657Z,10.15
2019-04-01T08:35:40.508Z,10.28
2019-04-01T08:38:13.425Z,10.72
2019-04-01T08:40:47.291Z,10.53
2019-04-01T08:43:20.312Z,10.50
2019-04-01T08:45:54.312Z,10.73
2019-04-01T08:48:28.270Z,10.91
2019-04-01T08:51:02.149Z,11.05
2019-04-01T08:53:35.121Z,10.66
2019-04-01T08:56:07.942Z,10.76
2019-04-01T08:58:41.178Z,10.75
2019-04-01T09:01:14.080Z,10.61
2019-04-01T09:03:47.005Z,10.89
2019-04-01T09:06:19.927Z,10.65
2019-04-01T09:08:52.827Z,10.83
2019-04-01T09:11:25.728Z,10.97
2019-04-01T09:13:59.116Z,10.83
2019-04-01T09:16:32.134Z,10.84
2019-04-01T09:19:05.026Z,10.64
2019-04-01T09:21:37.840Z,10.88
2019-04-01T09:24:10.711Z,10.90
2019-04-01T09:26:43.640Z,10.73
2019-04-01T09:29:16.648Z,10.51
2019-04-01T09:31:49.790Z,10.84
2019-04-01T09:34:22.663Z,11.16
2019-04-01T09:36:55.511Z,10.82
2019-04-01T09:39:28.360Z,10.77
2019-04-01T09:42:01.255Z,11.17
2019-04-01T09:44:37.057Z,11.46
2019-04-01T09:47:08.824Z,11.55
2019-04-01T09:49:41.663Z,11.30
2019-04-01T09:52:14.545Z,11.20
2019-04-01T09:54:47.336Z,11.22
2019-04-01T09:57:20.175Z,10.96
2019-04-01T09:59:53.169Z,10.92
2019-04-01T10:02:32.101Z,11.01
2019-04-01T10:05:01.618Z,11.17
2019-04-01T10:07:34.590Z,11.14
2019-04-01T10:10:07.556Z,11.12
2019-04-01T10:12:40.480Z,11.21
2019-04-01T10:15:13.388Z,11.53
2019-04-01T10:17:46.272Z,11.74
2019-04-01T10:20:19.118Z,11.93
2019-04-01T10:22:52.003Z,11.87
2019-04-01T10:25:24.986Z,11.65
2019-04-01T10:27:57.880Z,11.36
2019-04-01T10:30:30.714Z,11.43
2019-04-01T10:33:03.637Z,11.37
2019-04-01T10:35:36.855Z,11.43
2019-04-01T10:38:09.901Z,11.23
2019-04-01T10:40:42.805Z,11.37
2019-04-01T10:43:15.641Z,11.47
2019-04-01T10:45:48.561Z,11.37
2019-04-01T10:48:21.577Z,11.28
2019-04-01T10:50:54.804Z,11.45
2019-04-01T10:53:27.617Z,11.18
2019-04-01T10:56:01.444Z,11.18
2019-04-01T10:58:34.329Z,11.56
2019-04-01T11:01:07.211Z,11.49
2019-04-01T11:03:40.087Z,11.42
2019-04-01T11:06:12.938Z,11.35
2019-04-01T11:08:45.847Z,11.29
2019-04-01T11:11:18.748Z,11.18
2019-04-01T11:14:09.587Z,11.32
2019-04-01T11:17:03.756Z,11.66
2019-04-01T11:19:34.436Z,11.73
2019-04-01T11:22:07.304Z,11.31
2019-04-01T11:24:40.207Z,11.17
2019-04-01T11:27:13.186Z,11.26
2019-04-01T11:29:46.452Z,11.41
2019-04-01T11:32:20.032Z,11.56
2019-04-01T11:34:56.027Z,11.55
2019-04-01T11:37:28.442Z,11.61
2019-04-01T11:40:01.352Z,11.53
2019-04-01T11:42:34.297Z,11.70
2019-04-01T11:45:08.377Z,11.52
2019-04-01T11:47:41.256Z,11.51
2019-04-01T11:50:14.187Z,11.41
2019-04-01T11:52:47.129Z,11.33
2019-04-01T11:55:20.218Z,11.37
2019-04-01T11:57:53.102Z,11.52
2019-04-01T12:00:26.355Z,11.72
2019-04-01T12:02:59.221Z,11.81
2019-04-01T12:05:32.250Z,12.02
2019-04-01T12:08:07.141Z,12.00
2019-04-01T12:10:40.007Z,11.73
2019-04-01T12:13:12.969Z,11.89
2019-04-01T12:15:45.965Z,11.91
2019-04-01T12:18:19.199Z,11.80
2019-04-01T12:20:52.091Z,11.84
2019-04-01T12:23:25.414Z,11.64
2019-04-01T12:25:58.214Z,11.60
2019-04-01T12:28:31.498Z,11.53
2019-04-01T12:31:04.310Z,11.59
2019-04-01T12:33:37.327Z,11.71
2019-04-01T12:36:11.804Z,11.84
2019-04-01T12:38:44.921Z,11.79
2019-04-01T12:41:18.323Z,11.89
2019-04-01T12:43:51.916Z,11.97
2019-04-01T12:46:24.860Z,11.73
2019-04-01T12:48:57.805Z,11.93
2019-04-01T12:51:30.570Z,11.82
2019-04-01T12:54:03.406Z,12.05
2019-04-01T12:56:36.413Z,11.94
2019-04-01T12:59:09.783Z,11.81
2019-04-01T13:01:42.598Z,11.84
2019-04-01T13:04:15.374Z,12.01
2019-04-01T13:06:48.243Z,11.77
2019-04-01T13:09:22.119Z,11.63
2019-04-01T13:11:55.086Z,11.59
2019-04-01T13:14:27.898Z,11.66
2019-04-01T13:17:00.731Z,11.76
2019-04-01T13:19:33.574Z,11.74
2019-04-01T13:22:06.389Z,11.83
2019-04-01T13:24:39.320Z,12.00
2019-04-01T13:27:12.138Z,11.98
2019-04-01T13:29:45.385Z,11.85
2019-04-01T13:32:20.155Z,11.76
2019-04-01T13:34:53.209Z,11.88
2019-04-01T13:37:26.033Z,11.97
2019-04-01T13:40:02.223Z,11.83
2019-04-01T13:42:33.329Z,11.69
2019-04-01T13:45:06.621Z,11.42
2019-04-01T13:47:41.249Z,11.40
2019-04-01T13:50:16.402Z,11.52
2019-04-01T13:52:49.337Z,11.70
2019-04-01T13:55:22.574Z,11.62
2019-04-01T13:57:55.946Z,11.65
2019-04-01T14:00:28.923Z,11.55
2019-04-01T14:03:01.758Z,11.43
2019-04-01T14:05:34.747Z,11.46
2019-04-01T14:08:07.662Z,11.29
2019-04-01T14:10:40.795Z,11.21
2019-04-01T14:13:15.098Z,11.34
2019-04-01T14:15:51.210Z,11.50
2019-04-01T14:18:23.002Z,11.48
2019-04-01T14:20:55.957Z,11.46
2019-04-01T14:23:28.852Z,11.56
2019-04-01T14:26:01.736Z,11.43
2019-04-01T14:28:34.626Z,11.36
2019-04-01T14:31:07.777Z,11.24
2019-04-01T14:33:40.596Z,11.15
2019-04-01T14:36:13.449Z,11.26
2019-04-01T14:38:46.416Z,11.07
2019-04-01T14:41:25.919Z,10.97
2019-04-01T14:44:00.261Z,10.78
2019-04-01T14:46:33.146Z,10.79
2019-04-01T14:49:06.148Z,10.90
2019-04-01T14:51:39.413Z,10.95
2019-04-01T14:54:15.804Z,10.79
2019-04-01T14:57:08.791Z,10.82
2019-04-01T14:59:45.055Z,10.74
2019-04-01T15:03:08.584Z,10.67
2019-04-01T15:05:52.613Z,10.74
2019-04-01T15:08:31.313Z,10.65
2019-04-01T15:11:04.133Z,10.52
2019-04-01T15:13:38.424Z,10.47
2019-04-01T15:16:12.221Z,10.50
2019-04-01T15:18:45.531Z,10.57
2019-04-01T15:21:18.647Z,10.50
2019-04-01T15:23:53.336Z,10.51
2019-04-01T15:26:26.259Z,10.51
2019-04-01T15:29:00.370Z,10.50
2019-04-01T15:31:33.152Z,10.53
2019-04-01T15:34:08.979Z,10.44
2019-04-01T15:36:40.519Z,10.47
2019-04-01T15:39:15.348Z,10.46
2019-04-01T15:41:48.555Z,10.36
2019-04-01T15:44:21.347Z,10.35
2019-04-01T15:46:54.075Z,10.20
2019-04-01T15:49:26.897Z,10.10
2019-04-01T15:51:59.713Z,9.99
2019-04-01T15:54:33.219Z,9.98
2019-04-01T15:57:06.080Z,10.00
2019-04-01T15:59:39.083Z,9.87
2019-04-01T16:02:11.882Z,9.89
2019-04-01T16:04:45.671Z,9.94
2019-04-01T16:07:18.786Z,9.91
2019-04-01T16:09:52.705Z,9.80
2019-04-01T16:12:25.512Z,9.76
2019-04-01T16:14:58.295Z,9.74
2019-04-01T16:17:31.032Z,9.72
2019-04-01T16:20:06.567Z,9.74
2019-04-01T16:22:43.569Z,9.66
2019-04-01T16:25:15.410Z,9.62
2019-04-01T16:27:48.279Z,9.60
2019-04-01T16:30:21.290Z,9.54
2019-04-01T16:32:54.118Z,9.52
2019-04-01T16:35:26.844Z,9.46
2019-04-01T16:38:20.075Z,9.42
2019-04-01T16:40:57.437Z,9.39
2019-04-01T16:43:30.517Z,9.33
2019-04-01T16:46:03.451Z,9.29
2019-04-01T16:48:36.407Z,9.30
2019-04-01T16:51:09.481Z,9.23
2019-04-01T16:53:45.395Z,9.13
2019-04-01T16:56:18.131Z,9.08
2019-04-01T16:58:51.183Z,9.04
2019-04-01T17:01:24.908Z,9.01
2019-04-01T17:03:58.359Z,9.01
2019-04-01T17:06:31.335Z,8.96
2019-04-01T17:09:53.465Z,8.80
2019-04-01T17:12:55.781Z,8.77
2019-04-01T17:15:33.531Z,8.68
2019-04-01T17:18:30.026Z,8.58
2019-04-01T17:21:05.120Z,8.58
2019-04-01T17:23:41.680Z,8.50
2019-04-01T17:26:12.831Z,8.45
2019-04-01T17:28:45.996Z,8.41
2019-04-01T17:31:18.910Z,8.35
2019-04-01T17:33:51.851Z,8.30
2019-04-01T17:36:26.192Z,8.28
2019-04-01T17:38:59.203Z,8.24
2019-04-01T17:41:32.272Z,8.20
2019-04-01T17:44:06.810Z,8.12
2019-04-01T17:46:39.767Z,8.07
2019-04-01T17:49:18.063Z,8.06
2019-04-01T17:51:53.820Z,8.01
2019-04-01T17:54:25.778Z,7.91
2019-04-01T17:56:58.783Z,7.89
2019-04-01T17:59:32.505Z,7.89
2019-04-01T18:02:08.970Z,7.79
2019-04-01T18:04:41.994Z,7.76
2019-04-01T18:07:15.537Z,7.67
2019-04-01T18:09:48.560Z,7.63
2019-04-01T18:12:21.527Z,7.60
2019-04-01T18:14:55.431Z,7.55
2019-04-01T18:17:28.520Z,7.53
2019-04-01T18:20:01.505Z,7.54
2019-04-01T18:22:34.697Z,7.50
2019-04-01T18:25:07.680Z,7.48
2019-04-01T18:27:40.917Z,7.39
2019-04-01T18:30:14.167Z,7.36
2019-04-01T18:32:47.129Z,7.31
2019-04-01T18:35:20.111Z,7.28
2019-04-01T18:37:53.105Z,7.24
2019-04-01T18:40:32.483Z,7.16
2019-04-01T18:43:00.704Z,7.15
2019-04-01T18:45:34.975Z,7.11
2019-04-01T18:48:07.959Z,7.10
2019-04-01T18:50:43.189Z,7.06
2019-04-01T18:53:28.604Z,7.01
2019-04-01T18:56:05.658Z,6.97
2019-04-01T18:58:43.480Z,6.87
2019-04-01T19:01:16.669Z,6.86
2019-04-01T19:03:49.650Z,6.81
2019-04-01T19:06:22.659Z,6.77
2019-04-01T19:09:08.440Z,6.75
2019-04-01T19:11:30.425Z,6.68
2019-04-01T19:14:03.481Z,6.54
2019-04-01T19:16:38.350Z,6.50
2019-04-01T19:19:13.921Z,6.48
2019-04-01T19:21:47.993Z,6.39
2019-04-01T19:24:20.970Z,6.35
2019-04-01T19:26:54.153Z,6.29
2019-04-01T19:29:27.258Z,6.25
2019-04-01T19:32:01.242Z,6.28
2019-04-01T19:34:34.281Z,6.22
2019-04-01T19:37:09.029Z,6.21
2019-04-01T19:39:42.094Z,6.17
2019-04-01T19:42:17.968Z,6.14
2019-04-01T19:44:52.044Z,6.13
2019-04-01T19:47:25.004Z,6.05
2019-04-01T19:49:57.884Z,5.99
2019-04-01T19:52:30.745Z,5.96
2019-04-01T19:55:03.787Z,5.87
2019-04-01T19:57:36.904Z,5.89
2019-04-01T20:00:09.897Z,5.91
2019-04-01T20:02:42.913Z,5.88
2019-04-01T20:05:15.946Z,5.82
2019-04-01T20:07:49.051Z,5.83
2019-04-01T20:10:21.996Z,5.80
2019-04-01T20:12:55.057Z,5.80
2019-04-01T20:15:28.225Z,5.79
2019-04-01T20:18:01.423Z,5.76
2019-04-01T20:20:34.570Z,5.76
2019-04-01T20:23:07.695Z,5.70
2019-04-01T20:25:40.888Z,5.66
2019-04-01T20:28:13.874Z,5.59
2019-04-01T20:30:47.456Z,5.59
2019-04-01T20:33:20.799Z,5.55
2019-04-01T20:35:54.171Z,5.49
2019-04-01T20:38:27.671Z,5.46
2019-04-01T20:41:00.759Z,5.47
2019-04-01T20:43:33.848Z,5.40
2019-04-01T20:46:06.892Z,5.38
2019-04-01T20:48:39.848Z,5.31
2019-04-01T20:51:12.797Z,5.29
2019-04-01T20:53:47.164Z,5.37
2019-04-01T20:56:21.773Z,5.30
2019-04-01T20:58:56.005Z,5.31
2019-04-01T21:01:29.329Z,5.24
2019-04-01T21:04:02.766Z,5.24
2019-04-01T21:06:37.441Z,5.12
2019-04-01T21:09:11.214Z,5.08
2019-04-01T21:11:44.332Z,5.09
2019-04-01T21:14:17.350Z,4.96
2019-04-01T21:16:50.317Z,4.88
2019-04-01T21:19:23.492Z,4.83
2019-04-01T21:21:56.962Z,4.83
2019-04-01T21:24:29.894Z,4.80
2019-04-01T21:27:02.910Z,4.77
2019-04-01T21:29:36.053Z,4.73
2019-04-01T21:32:09.354Z,4.67
2019-04-01T21:34:42.233Z,4.66
2019-04-01T21:37:15.161Z,4.64
2019-04-01T21:39:48.712Z,4.63
2019-04-01T21:42:22.123Z,4.58
2019-04-01T21:44:55.531Z,4.54
2019-04-01T21:47:28.483Z,4.50
2019-04-01T21:50:01.579Z,4.45
2019-04-01T21:52:39.215Z,4.45
2019-04-01T21:55:16.264Z,4.43
2019-04-01T21:57:51.059Z,4.36
2019-04-01T22:00:43.172Z,4.36
2019-04-01T22:03:16.471Z,4.29
2019-04-01T22:05:49.379Z,4.27
2019-04-01T22:08:22.361Z,4.26
2019-04-01T22:10:55.381Z,4.22
2019-04-01T22:13:30.313Z,4.19
2019-04-01T22:16:03.128Z,4.18
2019-04-01T22:18:36.101Z,4.16
2019-04-01T22:21:09.043Z,4.07
2019-04-01T22:23:41.974Z,4.04
2019-04-01T22:26:16.028Z,4.08
2019-04-01T22:28:49.086Z,4.04
2019-04-01T22:31:22.269Z,4.03
2019-04-01T22:33:55.578Z,3.98
2019-04-01T22:36:31.349Z,3.98
2019-04-01T22:39:06.790Z,3.93
2019-04-01T22:41:41.620Z,3.89
2019-04-01T22:44:15.619Z,3.94
2019-04-01T22:46:50.235Z,3.94
2019-04-01T22:49:23.660Z,3.98
2019-04-01T22:51:56.888Z,3.95
2019-04-01T22:54:31.105Z,3.94
2019-04-01T22:57:06.671Z,3.90
2019-04-01T22:59:43.501Z,3.89
2019-04-01T23:02:16.861Z,3.89
2019-04-01T23:04:50.481Z,3.88
2019-04-01T23:07:23.966Z,3.87
2019-04-01T23:09:58.089Z,3.84
2019-04-01T23:12:32.328Z,3.84
2019-04-01T23:15:06.570Z,3.77
2019-04-01T23:17:42.447Z,3.78
2019-04-01T23:20:18.493Z,3.70
2019-04-01T23:22:52.090Z,3.70
2019-04-01T23:25:26.263Z,3.66
2019-04-01T23:28:00.922Z,3.64
2019-04-01T23:30:37.862Z,3.63
2019-04-01T23:33:12.050Z,3.54
2019-04-01T23:35:45.472Z,3.50
2019-04-01T23:38:19.216Z,3.46
2019-04-01T23:40:53.849Z,3.40
2019-04-01T23:43:27.209Z,3.37
2019-04-01T23:46:00.980Z,3.29
2019-04-01T23:48:35.780Z,3.23
2019-04-01T23:51:09.228Z,3.21
2019-04-01T23:53:42.733Z,3.21
2019-04-01T23:56:16.952Z,3.20
2019-04-01T23:58:51.159Z,3.16
